Portada
METAR-TAF:

METAR-TAF

Aeroports :

Visakhapatnam, Índia

latitud: 17-43-16N, longitud: 83-13-28E, altitud: 6 m

Observació

L'informe es va fer fa 32 minuts, a les 03:00 UTC
Vent 6 kt del Nord-Est
Temperatura 27°C
Humitat 66%
Pressió 1015 hPa
Visibilitat: 2500 m
calitja

METAR: VOVZ 150300Z 05006KT 2500 HZ NSC 27/20 Q1015 NOSIG

Hora: 09:02 (03:32 UTC)

Pronòstic

L'informe es va fer fa 1 hora i 32 minuts, a les 02:00 UTC
Pronòstic vàlid del 15 a les 03 UTC al 15 a les 12 UTC
Vent 10 kt del Est
Visibilitat: 2500 m
Escasses núvols a una alçada de 1800 ft
calitja
Evolucionant progressivament
l' 15 a les 03 UTC al 15 a les 05 UTC
Visibilitat: 4000 m
calitja
Evolucionant progressivament
l' 15 a les 06 UTC al 15 a les 08 UTC
Visibilitat: 5000 m
calitja

TAF: VOVZ 150200Z 1503/1512 09010KT 2500 HZ FEW018 BECMG 1503/1505 4000 HZ BECMG 1506/1508 5000 HZ

Observacions i pronòstics meteorològics de més de 4000 aeroports (METAR i TAF).

Les estacions disponibles són els punts grocs i vermells al mapa.

Posi el ratolí al punt desitjat per veure el nom de l'estació.

Feu clic per veure les observacions i els pronòstics meteorològics.

Per canviar el mapa: feu clic els botons verds amb una creu de color negre per apropar; al botó verd amb un guió per allunyar la imatge; o en les fletxes verdes per a mapes adjacents.


METAR-TAF: